sensor_id;sensor_type;location;lat;lon;timestamp;P1;durP1;ratioP1;P2;durP2;ratioP2
74344;SDS011;62776;50.518;6.732;2023-10-09T00:00:32;3.08;;;1.92;;
74344;SDS011;62776;50.518;6.732;2023-10-09T00:03:35;2.42;;;2.22;;
74344;SDS011;62776;50.518;6.732;2023-10-09T00:06:24;1.27;;;1.13;;
74344;SDS011;62776;50.518;6.732;2023-10-09T00:09:21;2.30;;;1.40;;
74344;SDS011;62776;50.518;6.732;2023-10-09T00:12:07;2.35;;;1.40;;
74344;SDS011;62776;50.518;6.732;2023-10-09T00:14:55;1.63;;;1.52;;
74344;SDS011;62776;50.518;6.732;2023-10-09T00:17:45;1.52;;;1.42;;
74344;SDS011;62776;50.518;6.732;2023-10-09T00:20:39;2.65;;;1.30;;
74344;SDS011;62776;50.518;6.732;2023-10-09T00:23:42;1.92;;;1.77;;
74344;SDS011;62776;50.518;6.732;2023-10-09T00:26:44;1.40;;;1.30;;
74344;SDS011;62776;50.518;6.732;2023-10-09T00:29:30;1.58;;;1.48;;
74344;SDS011;62776;50.518;6.732;2023-10-09T00:32:22;1.20;;;1.10;;
74344;SDS011;62776;50.518;6.732;2023-10-09T00:35:11;1.77;;;1.58;;
74344;SDS011;62776;50.518;6.732;2023-10-09T00:38:30;1.38;;;1.23;;
74344;SDS011;62776;50.518;6.732;2023-10-09T00:41:19;1.88;;;1.60;;
74344;SDS011;62776;50.518;6.732;2023-10-09T00:44:07;2.05;;;1.50;;
74344;SDS011;62776;50.518;6.732;2023-10-09T00:46:53;1.30;;;1.17;;
74344;SDS011;62776;50.518;6.732;2023-10-09T00:49:54;1.80;;;1.52;;
74344;SDS011;62776;50.518;6.732;2023-10-09T00:52:47;3.15;;;1.63;;
74344;SDS011;62776;50.518;6.732;2023-10-09T00:55:46;2.67;;;1.58;;
74344;SDS011;62776;50.518;6.732;2023-10-09T00:58:40;1.33;;;1.23;;
74344;SDS011;62776;50.518;6.732;2023-10-09T01:01:31;1.20;;;1.13;;
74344;SDS011;62776;50.518;6.732;2023-10-09T01:04:41;3.83;;;1.38;;
74344;SDS011;62776;50.518;6.732;2023-10-09T01:07:29;2.22;;;1.75;;
74344;SDS011;62776;50.518;6.732;2023-10-09T01:10:17;1.60;;;1.42;;
74344;SDS011;62776;50.518;6.732;2023-10-09T01:12:47;2.08;;;1.40;;
74344;SDS011;62776;50.518;6.732;2023-10-09T01:15:40;1.52;;;1.30;;
74344;SDS011;62776;50.518;6.732;2023-10-09T01:18:35;1.40;;;1.30;;
74344;SDS011;62776;50.518;6.732;2023-10-09T01:21:23;2.28;;;1.80;;
74344;SDS011;62776;50.518;6.732;2023-10-09T01:24:14;1.80;;;1.65;;
74344;SDS011;62776;50.518;6.732;2023-10-09T01:27:01;1.40;;;1.30;;
74344;SDS011;62776;50.518;6.732;2023-10-09T01:29:56;2.38;;;1.55;;
74344;SDS011;62776;50.518;6.732;2023-10-09T01:32:44;1.75;;;1.35;;
74344;SDS011;62776;50.518;6.732;2023-10-09T01:35:30;1.98;;;1.58;;
74344;SDS011;62776;50.518;6.732;2023-10-09T01:38:19;2.22;;;1.48;;
74344;SDS011;62776;50.518;6.732;2023-10-09T01:41:15;1.45;;;1.35;;
74344;SDS011;62776;50.518;6.732;2023-10-09T01:44:04;1.88;;;1.55;;
74344;SDS011;62776;50.518;6.732;2023-10-09T01:46:57;2.13;;;1.30;;
74344;SDS011;62776;50.518;6.732;2023-10-09T01:49:43;1.50;;;1.40;;
74344;SDS011;62776;50.518;6.732;2023-10-09T01:52:36;1.40;;;1.30;;
74344;SDS011;62776;50.518;6.732;2023-10-09T01:55:24;2.58;;;1.48;;
74344;SDS011;62776;50.518;6.732;2023-10-09T01:58:25;3.78;;;1.95;;
74344;SDS011;62776;50.518;6.732;2023-10-09T02:01:17;1.50;;;1.40;;
74344;SDS011;62776;50.518;6.732;2023-10-09T02:04:03;1.52;;;1.38;;
74344;SDS011;62776;50.518;6.732;2023-10-09T02:06:56;1.70;;;1.60;;
74344;SDS011;62776;50.518;6.732;2023-10-09T02:09:42;1.50;;;1.40;;
74344;SDS011;62776;50.518;6.732;2023-10-09T02:12:32;1.98;;;1.63;;
74344;SDS011;62776;50.518;6.732;2023-10-09T02:15:18;1.75;;;1.13;;
74344;SDS011;62776;50.518;6.732;2023-10-09T02:18:25;2.00;;;1.25;;
74344;SDS011;62776;50.518;6.732;2023-10-09T02:21:12;1.60;;;1.50;;
74344;SDS011;62776;50.518;6.732;2023-10-09T02:23:58;2.47;;;1.90;;
74344;SDS011;62776;50.518;6.732;2023-10-09T02:26:52;1.40;;;1.15;;
74344;SDS011;62776;50.518;6.732;2023-10-09T02:29:39;1.35;;;1.25;;
74344;SDS011;62776;50.518;6.732;2023-10-09T02:32:27;2.70;;;1.25;;
74344;SDS011;62776;50.518;6.732;2023-10-09T02:35:15;4.82;;;1.60;;
74344;SDS011;62776;50.518;6.732;2023-10-09T02:38:23;2.67;;;1.45;;
74344;SDS011;62776;50.518;6.732;2023-10-09T02:41:09;2.05;;;1.50;;
74344;SDS011;62776;50.518;6.732;2023-10-09T02:43:58;1.50;;;1.40;;
74344;SDS011;62776;50.518;6.732;2023-10-09T02:46:59;4.40;;;1.88;;
74344;SDS011;62776;50.518;6.732;2023-10-09T02:49:50;2.63;;;1.25;;
74344;SDS011;62776;50.518;6.732;2023-10-09T02:52:37;2.08;;;1.88;;
74344;SDS011;62776;50.518;6.732;2023-10-09T02:55:26;6.50;;;1.40;;
74344;SDS011;62776;50.518;6.732;2023-10-09T02:58:16;2.33;;;1.40;;
74344;SDS011;62776;50.518;6.732;2023-10-09T03:01:10;1.15;;;1.05;;
74344;SDS011;62776;50.518;6.732;2023-10-09T03:03:58;2.67;;;1.55;;
74344;SDS011;62776;50.518;6.732;2023-10-09T03:06:47;1.45;;;1.00;;
74344;SDS011;62776;50.518;6.732;2023-10-09T03:09:39;3.20;;;1.60;;
74344;SDS011;62776;50.518;6.732;2023-10-09T03:12:26;2.15;;;1.35;;
74344;SDS011;62776;50.518;6.732;2023-10-09T03:15:13;1.05;;;1.00;;
74344;SDS011;62776;50.518;6.732;2023-10-09T03:18:06;1.35;;;1.25;;
74344;SDS011;62776;50.518;6.732;2023-10-09T03:20:52;1.98;;;1.58;;
74344;SDS011;62776;50.518;6.732;2023-10-09T03:23:41;2.08;;;1.70;;
74344;SDS011;62776;50.518;6.732;2023-10-09T03:26:36;1.45;;;1.35;;
74344;SDS011;62776;50.518;6.732;2023-10-09T03:29:26;1.83;;;1.30;;
74344;SDS011;62776;50.518;6.732;2023-10-09T03:32:12;3.15;;;1.60;;
74344;SDS011;62776;50.518;6.732;2023-10-09T03:34:58;1.13;;;1.02;;
74344;SDS011;62776;50.518;6.732;2023-10-09T03:37:45;1.65;;;1.55;;
74344;SDS011;62776;50.518;6.732;2023-10-09T03:40:33;2.78;;;1.70;;
74344;SDS011;62776;50.518;6.732;2023-10-09T03:43:24;2.55;;;1.05;;
74344;SDS011;62776;50.518;6.732;2023-10-09T03:46:10;1.80;;;1.35;;
74344;SDS011;62776;50.518;6.732;2023-10-09T03:49:07;3.28;;;1.58;;
74344;SDS011;62776;50.518;6.732;2023-10-09T03:51:57;2.28;;;1.42;;
74344;SDS011;62776;50.518;6.732;2023-10-09T03:54:47;2.80;;;1.38;;
74344;SDS011;62776;50.518;6.732;2023-10-09T03:57:34;1.95;;;1.40;;
74344;SDS011;62776;50.518;6.732;2023-10-09T04:00:20;1.70;;;1.60;;
74344;SDS011;62776;50.518;6.732;2023-10-09T04:03:15;1.83;;;1.40;;
74344;SDS011;62776;50.518;6.732;2023-10-09T04:06:01;1.73;;;1.50;;
74344;SDS011;62776;50.518;6.732;2023-10-09T04:08:49;1.88;;;1.58;;
74344;SDS011;62776;50.518;6.732;2023-10-09T04:11:38;1.60;;;1.50;;
74344;SDS011;62776;50.518;6.732;2023-10-09T04:14:46;1.50;;;1.38;;
74344;SDS011;62776;50.518;6.732;2023-10-09T04:17:39;2.17;;;1.38;;
74344;SDS011;62776;50.518;6.732;2023-10-09T04:20:28;1.80;;;1.70;;
74344;SDS011;62776;50.518;6.732;2023-10-09T04:23:17;2.20;;;1.83;;
74344;SDS011;62776;50.518;6.732;2023-10-09T04:26:19;2.15;;;1.60;;
74344;SDS011;62776;50.518;6.732;2023-10-09T04:29:06;1.60;;;1.50;;
74344;SDS011;62776;50.518;6.732;2023-10-09T04:31:55;2.17;;;1.70;;
74344;SDS011;62776;50.518;6.732;2023-10-09T04:34:45;1.63;;;1.40;;
74344;SDS011;62776;50.518;6.732;2023-10-09T04:37:34;2.30;;;1.67;;
74344;SDS011;62776;50.518;6.732;2023-10-09T04:40:24;1.55;;;1.45;;
74344;SDS011;62776;50.518;6.732;2023-10-09T04:43:29;2.00;;;1.52;;
74344;SDS011;62776;50.518;6.732;2023-10-09T04:46:18;1.85;;;1.65;;
74344;SDS011;62776;50.518;6.732;2023-10-09T04:49:08;2.67;;;1.50;;
74344;SDS011;62776;50.518;6.732;2023-10-09T04:52:12;2.17;;;1.27;;
74344;SDS011;62776;50.518;6.732;2023-10-09T04:55:25;1.85;;;1.70;;
74344;SDS011;62776;50.518;6.732;2023-10-09T04:58:12;2.50;;;1.58;;
74344;SDS011;62776;50.518;6.732;2023-10-09T05:01:08;1.85;;;1.65;;
74344;SDS011;62776;50.518;6.732;2023-10-09T05:03:58;2.42;;;1.90;;
74344;SDS011;62776;50.518;6.732;2023-10-09T05:06:49;1.58;;;1.48;;
74344;SDS011;62776;50.518;6.732;2023-10-09T05:09:41;1.50;;;1.40;;
74344;SDS011;62776;50.518;6.732;2023-10-09T05:12:40;1.55;;;1.45;;
74344;SDS011;62776;50.518;6.732;2023-10-09T05:15:33;1.45;;;1.35;;
74344;SDS011;62776;50.518;6.732;2023-10-09T05:18:24;1.73;;;1.45;;
74344;SDS011;62776;50.518;6.732;2023-10-09T05:21:12;1.85;;;1.75;;
74344;SDS011;62776;50.518;6.732;2023-10-09T05:24:01;1.42;;;1.33;;
74344;SDS011;62776;50.518;6.732;2023-10-09T05:26:57;2.35;;;1.40;;
74344;SDS011;62776;50.518;6.732;2023-10-09T05:30:02;1.58;;;1.48;;
74344;SDS011;62776;50.518;6.732;2023-10-09T05:33:09;1.52;;;1.42;;
74344;SDS011;62776;50.518;6.732;2023-10-09T05:36:14;1.65;;;1.55;;
74344;SDS011;62776;50.518;6.732;2023-10-09T05:39:16;1.70;;;1.60;;
74344;SDS011;62776;50.518;6.732;2023-10-09T05:42:26;2.72;;;1.58;;
74344;SDS011;62776;50.518;6.732;2023-10-09T05:45:22;1.95;;;1.63;;
74344;SDS011;62776;50.518;6.732;2023-10-09T05:48:26;1.70;;;1.60;;
74344;SDS011;62776;50.518;6.732;2023-10-09T05:51:36;1.25;;;1.15;;
74344;SDS011;62776;50.518;6.732;2023-10-09T05:54:30;2.05;;;1.70;;
74344;SDS011;62776;50.518;6.732;2023-10-09T05:57:35;1.40;;;1.30;;
74344;SDS011;62776;50.518;6.732;2023-10-09T06:00:48;2.28;;;1.67;;
74344;SDS011;62776;50.518;6.732;2023-10-09T06:04:10;1.98;;;1.50;;
74344;SDS011;62776;50.518;6.732;2023-10-09T06:07:03;1.60;;;1.50;;
74344;SDS011;62776;50.518;6.732;2023-10-09T06:09:57;1.88;;;1.20;;
74344;SDS011;62776;50.518;6.732;2023-10-09T06:12:55;1.50;;;1.40;;
74344;SDS011;62776;50.518;6.732;2023-10-09T06:15:49;1.23;;;1.10;;
74344;SDS011;62776;50.518;6.732;2023-10-09T06:18:54;1.40;;;1.30;;
74344;SDS011;62776;50.518;6.732;2023-10-09T06:21:56;3.10;;;1.88;;
74344;SDS011;62776;50.518;6.732;2023-10-09T06:25:02;1.60;;;1.50;;
74344;SDS011;62776;50.518;6.732;2023-10-09T06:27:56;1.30;;;1.20;;
74344;SDS011;62776;50.518;6.732;2023-10-09T06:30:43;1.30;;;1.20;;
74344;SDS011;62776;50.518;6.732;2023-10-09T06:33:32;1.50;;;1.40;;
74344;SDS011;62776;50.518;6.732;2023-10-09T06:36:38;1.52;;;1.42;;
74344;SDS011;62776;50.518;6.732;2023-10-09T06:39:37;1.58;;;1.48;;
74344;SDS011;62776;50.518;6.732;2023-10-09T06:42:50;1.20;;;1.10;;
74344;SDS011;62776;50.518;6.732;2023-10-09T06:45:36;1.70;;;1.40;;
74344;SDS011;62776;50.518;6.732;2023-10-09T06:48:40;1.48;;;1.38;;
74344;SDS011;62776;50.518;6.732;2023-10-09T06:51:29;1.20;;;1.10;;
74344;SDS011;62776;50.518;6.732;2023-10-09T06:54:16;1.20;;;1.10;;
74344;SDS011;62776;50.518;6.732;2023-10-09T06:57:02;1.50;;;1.40;;
74344;SDS011;62776;50.518;6.732;2023-10-09T07:00:15;2.17;;;1.52;;
74344;SDS011;62776;50.518;6.732;2023-10-09T07:03:34;2.35;;;1.17;;
74344;SDS011;62776;50.518;6.732;2023-10-09T07:06:22;3.15;;;1.45;;
74344;SDS011;62776;50.518;6.732;2023-10-09T07:09:08;1.70;;;1.25;;
74344;SDS011;62776;50.518;6.732;2023-10-09T07:11:58;1.83;;;1.73;;
74344;SDS011;62776;50.518;6.732;2023-10-09T07:14:44;1.42;;;1.33;;
74344;SDS011;62776;50.518;6.732;2023-10-09T07:17:31;1.55;;;1.30;;
74344;SDS011;62776;50.518;6.732;2023-10-09T07:20:20;1.10;;;1.02;;
74344;SDS011;62776;50.518;6.732;2023-10-09T07:23:25;1.83;;;1.38;;
74344;SDS011;62776;50.518;6.732;2023-10-09T07:26:17;1.58;;;1.48;;
74344;SDS011;62776;50.518;6.732;2023-10-09T07:29:04;1.55;;;1.30;;
74344;SDS011;62776;50.518;6.732;2023-10-09T07:32:01;2.22;;;1.60;;
74344;SDS011;62776;50.518;6.732;2023-10-09T07:34:57;1.60;;;1.50;;
74344;SDS011;62776;50.518;6.732;2023-10-09T07:37:46;1.73;;;1.63;;
74344;SDS011;62776;50.518;6.732;2023-10-09T07:40:36;1.70;;;1.48;;
74344;SDS011;62776;50.518;6.732;2023-10-09T07:43:44;1.42;;;1.20;;
74344;SDS011;62776;50.518;6.732;2023-10-09T07:46:31;1.98;;;1.33;;
74344;SDS011;62776;50.518;6.732;2023-10-09T07:49:18;1.38;;;1.13;;
74344;SDS011;62776;50.518;6.732;2023-10-09T07:52:18;1.73;;;1.33;;
74344;SDS011;62776;50.518;6.732;2023-10-09T07:55:07;1.40;;;1.30;;
74344;SDS011;62776;50.518;6.732;2023-10-09T07:58:11;1.40;;;1.30;;
74344;SDS011;62776;50.518;6.732;2023-10-09T08:00:57;1.80;;;1.70;;
74344;SDS011;62776;50.518;6.732;2023-10-09T08:03:53;1.30;;;1.20;;
74344;SDS011;62776;50.518;6.732;2023-10-09T08:06:58;1.52;;;1.42;;
74344;SDS011;62776;50.518;6.732;2023-10-09T08:09:48;1.40;;;1.30;;
74344;SDS011;62776;50.518;6.732;2023-10-09T08:12:54;1.15;;;1.10;;
74344;SDS011;62776;50.518;6.732;2023-10-09T08:15:43;1.52;;;1.42;;
74344;SDS011;62776;50.518;6.732;2023-10-09T08:18:38;1.33;;;1.20;;
74344;SDS011;62776;50.518;6.732;2023-10-09T08:21:29;1.40;;;1.27;;
74344;SDS011;62776;50.518;6.732;2023-10-09T08:24:30;1.25;;;1.10;;
74344;SDS011;62776;50.518;6.732;2023-10-09T08:27:37;2.10;;;1.55;;
74344;SDS011;62776;50.518;6.732;2023-10-09T08:30:31;1.92;;;1.52;;
74344;SDS011;62776;50.518;6.732;2023-10-09T08:33:39;1.67;;;1.50;;
74344;SDS011;62776;50.518;6.732;2023-10-09T08:36:26;1.30;;;1.20;;
74344;SDS011;62776;50.518;6.732;2023-10-09T08:39:13;1.55;;;1.45;;
74344;SDS011;62776;50.518;6.732;2023-10-09T08:42:10;1.50;;;1.33;;
74344;SDS011;62776;50.518;6.732;2023-10-09T08:44:57;1.77;;;1.65;;
74344;SDS011;62776;50.518;6.732;2023-10-09T08:47:45;1.65;;;1.55;;
74344;SDS011;62776;50.518;6.732;2023-10-09T08:50:35;1.45;;;1.35;;
74344;SDS011;62776;50.518;6.732;2023-10-09T08:53:22;1.52;;;1.40;;
74344;SDS011;62776;50.518;6.732;2023-10-09T08:56:10;3.38;;;1.95;;
74344;SDS011;62776;50.518;6.732;2023-10-09T08:59:07;1.85;;;1.38;;
74344;SDS011;62776;50.518;6.732;2023-10-09T09:01:55;1.90;;;1.42;;
74344;SDS011;62776;50.518;6.732;2023-10-09T09:04:45;1.50;;;1.02;;
74344;SDS011;62776;50.518;6.732;2023-10-09T09:07:35;1.40;;;1.20;;
74344;SDS011;62776;50.518;6.732;2023-10-09T09:10:30;1.77;;;1.50;;
74344;SDS011;62776;50.518;6.732;2023-10-09T09:13:31;2.70;;;1.65;;
74344;SDS011;62776;50.518;6.732;2023-10-09T09:16:20;1.55;;;1.42;;
74344;SDS011;62776;50.518;6.732;2023-10-09T09:19:10;1.88;;;1.23;;
74344;SDS011;62776;50.518;6.732;2023-10-09T09:22:02;1.38;;;1.27;;
74344;SDS011;62776;50.518;6.732;2023-10-09T09:24:59;1.63;;;1.35;;
74344;SDS011;62776;50.518;6.732;2023-10-09T09:27:51;4.53;;;1.55;;
74344;SDS011;62776;50.518;6.732;2023-10-09T09:30:41;1.50;;;1.38;;
74344;SDS011;62776;50.518;6.732;2023-10-09T09:33:27;1.60;;;1.25;;
74344;SDS011;62776;50.518;6.732;2023-10-09T09:36:49;3.92;;;1.80;;
74344;SDS011;62776;50.518;6.732;2023-10-09T09:39:41;1.30;;;1.20;;
74344;SDS011;62776;50.518;6.732;2023-10-09T09:42:37;2.03;;;1.83;;
74344;SDS011;62776;50.518;6.732;2023-10-09T09:45:36;1.98;;;1.40;;
74344;SDS011;62776;50.518;6.732;2023-10-09T09:48:36;1.60;;;1.40;;
74344;SDS011;62776;50.518;6.732;2023-10-09T09:51:30;1.42;;;1.33;;
74344;SDS011;62776;50.518;6.732;2023-10-09T09:54:20;1.98;;;1.42;;
74344;SDS011;62776;50.518;6.732;2023-10-09T10:01:08;2.10;;;1.88;;
74344;SDS011;62776;50.518;6.732;2023-10-09T10:04:03;1.58;;;1.25;;
74344;SDS011;62776;50.518;6.732;2023-10-09T10:07:11;1.63;;;1.40;;
74344;SDS011;62776;50.518;6.732;2023-10-09T10:10:05;2.88;;;1.30;;
74344;SDS011;62776;50.518;6.732;2023-10-09T10:13:57;1.50;;;1.40;;
74344;SDS011;62776;50.518;6.732;2023-10-09T10:20:01;1.45;;;1.35;;
74344;SDS011;62776;50.518;6.732;2023-10-09T10:23:19;1.42;;;1.33;;
74344;SDS011;62776;50.518;6.732;2023-10-09T10:26:20;1.77;;;0.98;;
74344;SDS011;62776;50.518;6.732;2023-10-09T10:29:25;2.05;;;1.30;;
74344;SDS011;62776;50.518;6.732;2023-10-09T10:32:25;2.53;;;1.13;;
74344;SDS011;62776;50.518;6.732;2023-10-09T10:36:09;1.98;;;1.30;;
74344;SDS011;62776;50.518;6.732;2023-10-09T10:39:26;1.70;;;1.30;;
74344;SDS011;62776;50.518;6.732;2023-10-09T10:42:30;1.92;;;1.10;;
74344;SDS011;62776;50.518;6.732;2023-10-09T10:45:19;1.85;;;1.25;;
74344;SDS011;62776;50.518;6.732;2023-10-09T10:48:23;2.45;;;1.13;;
74344;SDS011;62776;50.518;6.732;2023-10-09T10:51:22;1.17;;;1.08;;
74344;SDS011;62776;50.518;6.732;2023-10-09T10:54:08;2.35;;;1.23;;
74344;SDS011;62776;50.518;6.732;2023-10-09T10:57:35;1.53;;;1.00;;
74344;SDS011;62776;50.518;6.732;2023-10-09T11:00:40;1.25;;;1.15;;
74344;SDS011;62776;50.518;6.732;2023-10-09T11:03:44;1.50;;;1.40;;
74344;SDS011;62776;50.518;6.732;2023-10-09T11:06:39;1.20;;;1.08;;
74344;SDS011;62776;50.518;6.732;2023-10-09T11:09:28;1.40;;;1.30;;
74344;SDS011;62776;50.518;6.732;2023-10-09T11:12:27;1.42;;;1.05;;
74344;SDS011;62776;50.518;6.732;2023-10-09T11:15:33;1.88;;;1.00;;
74344;SDS011;62776;50.518;6.732;2023-10-09T11:18:31;1.52;;;1.42;;
74344;SDS011;62776;50.518;6.732;2023-10-09T11:21:31;2.38;;;1.55;;
74344;SDS011;62776;50.518;6.732;2023-10-09T11:24:26;1.35;;;1.25;;
74344;SDS011;62776;50.518;6.732;2023-10-09T11:27:18;1.90;;;1.27;;
74344;SDS011;62776;50.518;6.732;2023-10-09T11:30:07;1.45;;;1.25;;
74344;SDS011;62776;50.518;6.732;2023-10-09T11:33:16;1.63;;;1.25;;
74344;SDS011;62776;50.518;6.732;2023-10-09T11:36:02;1.30;;;1.20;;
74344;SDS011;62776;50.518;6.732;2023-10-09T11:38:52;1.65;;;0.90;;
74344;SDS011;62776;50.518;6.732;2023-10-09T11:42:04;1.55;;;1.30;;
74344;SDS011;62776;50.518;6.732;2023-10-09T11:44:52;1.50;;;1.40;;
74344;SDS011;62776;50.518;6.732;2023-10-09T11:47:40;1.35;;;1.20;;
74344;SDS011;62776;50.518;6.732;2023-10-09T11:53:57;2.38;;;1.23;;
74344;SDS011;62776;50.518;6.732;2023-10-09T11:56:44;4.78;;;1.20;;
74344;SDS011;62776;50.518;6.732;2023-10-09T11:59:31;1.35;;;1.20;;
74344;SDS011;62776;50.518;6.732;2023-10-09T12:02:27;1.27;;;0.95;;
74344;SDS011;62776;50.518;6.732;2023-10-09T12:05:13;3.15;;;1.00;;
74344;SDS011;62776;50.518;6.732;2023-10-09T12:08:02;0.90;;;0.90;;
74344;SDS011;62776;50.518;6.732;2023-10-09T12:10:55;1.75;;;1.40;;
74344;SDS011;62776;50.518;6.732;2023-10-09T12:13:58;1.27;;;1.17;;
74344;SDS011;62776;50.518;6.732;2023-10-09T12:16:50;2.30;;;1.35;;
74344;SDS011;62776;50.518;6.732;2023-10-09T12:19:50;4.32;;;1.50;;
74344;SDS011;62776;50.518;6.732;2023-10-09T12:22:37;1.50;;;1.33;;
74344;SDS011;62776;50.518;6.732;2023-10-09T12:25:37;2.00;;;1.13;;
74344;SDS011;62776;50.518;6.732;2023-10-09T12:28:23;2.17;;;1.52;;
74344;SDS011;62776;50.518;6.732;2023-10-09T12:31:12;1.20;;;1.10;;
74344;SDS011;62776;50.518;6.732;2023-10-09T12:34:22;4.30;;;1.33;;
74344;SDS011;62776;50.518;6.732;2023-10-09T12:37:11;2.75;;;1.45;;
74344;SDS011;62776;50.518;6.732;2023-10-09T12:39:58;1.25;;;1.13;;
74344;SDS011;62776;50.518;6.732;2023-10-09T12:42:53;1.70;;;1.42;;
74344;SDS011;62776;50.518;6.732;2023-10-09T12:46:07;2.85;;;1.20;;
74344;SDS011;62776;50.518;6.732;2023-10-09T12:49:01;1.05;;;1.02;;
74344;SDS011;62776;50.518;6.732;2023-10-09T12:51:52;1.10;;;1.00;;
74344;SDS011;62776;50.518;6.732;2023-10-09T12:54:49;1.75;;;1.42;;
74344;SDS011;62776;50.518;6.732;2023-10-09T12:57:45;1.35;;;1.25;;
74344;SDS011;62776;50.518;6.732;2023-10-09T13:00:52;1.30;;;1.20;;
74344;SDS011;62776;50.518;6.732;2023-10-09T13:03:41;1.77;;;1.27;;
74344;SDS011;62776;50.518;6.732;2023-10-09T13:06:29;2.83;;;1.58;;
74344;SDS011;62776;50.518;6.732;2023-10-09T13:09:19;1.38;;;1.27;;
74344;SDS011;62776;50.518;6.732;2023-10-09T13:12:26;1.67;;;1.30;;
74344;SDS011;62776;50.518;6.732;2023-10-09T13:15:22;5.07;;;1.42;;
74344;SDS011;62776;50.518;6.732;2023-10-09T13:21:03;1.50;;;1.10;;
74344;SDS011;62776;50.518;6.732;2023-10-09T13:23:50;1.00;;;0.90;;
74344;SDS011;62776;50.518;6.732;2023-10-09T13:26:39;1.30;;;1.20;;
74344;SDS011;62776;50.518;6.732;2023-10-09T13:29:28;2.25;;;1.30;;
74344;SDS011;62776;50.518;6.732;2023-10-09T13:32:18;1.23;;;1.13;;
74344;SDS011;62776;50.518;6.732;2023-10-09T13:35:05;1.25;;;0.95;;
74344;SDS011;62776;50.518;6.732;2023-10-09T13:37:52;1.17;;;1.02;;
74344;SDS011;62776;50.518;6.732;2023-10-09T13:40:40;3.00;;;1.30;;
74344;SDS011;62776;50.518;6.732;2023-10-09T13:43:31;1.90;;;1.27;;
74344;SDS011;62776;50.518;6.732;2023-10-09T13:46:18;1.30;;;1.20;;
74344;SDS011;62776;50.518;6.732;2023-10-09T13:49:04;1.75;;;1.05;;
74344;SDS011;62776;50.518;6.732;2023-10-09T13:51:54;4.72;;;0.95;;
74344;SDS011;62776;50.518;6.732;2023-10-09T13:54:41;1.77;;;1.25;;
74344;SDS011;62776;50.518;6.732;2023-10-09T13:57:28;2.03;;;0.88;;
74344;SDS011;62776;50.518;6.732;2023-10-09T14:00:16;2.72;;;1.38;;
74344;SDS011;62776;50.518;6.732;2023-10-09T14:03:17;1.58;;;1.10;;
74344;SDS011;62776;50.518;6.732;2023-10-09T14:06:06;1.35;;;1.25;;
74344;SDS011;62776;50.518;6.732;2023-10-09T14:09:00;1.25;;;1.00;;
74344;SDS011;62776;50.518;6.732;2023-10-09T14:11:50;2.10;;;1.00;;
74344;SDS011;62776;50.518;6.732;2023-10-09T14:17:25;1.38;;;1.10;;
74344;SDS011;62776;50.518;6.732;2023-10-09T14:20:16;4.28;;;1.33;;
74344;SDS011;62776;50.518;6.732;2023-10-09T14:23:16;1.33;;;1.20;;
74344;SDS011;62776;50.518;6.732;2023-10-09T14:26:06;1.13;;;1.02;;
74344;SDS011;62776;50.518;6.732;2023-10-09T14:28:53;1.23;;;1.05;;
74344;SDS011;62776;50.518;6.732;2023-10-09T14:31:42;1.20;;;1.10;;
74344;SDS011;62776;50.518;6.732;2023-10-09T14:34:34;1.50;;;1.40;;
74344;SDS011;62776;50.518;6.732;2023-10-09T14:37:21;1.52;;;1.30;;
74344;SDS011;62776;50.518;6.732;2023-10-09T14:40:08;3.00;;;1.40;;
74344;SDS011;62776;50.518;6.732;2023-10-09T14:42:58;1.40;;;1.30;;
74344;SDS011;62776;50.518;6.732;2023-10-09T14:45:50;1.40;;;1.30;;
74344;SDS011;62776;50.518;6.732;2023-10-09T14:48:38;1.63;;;1.50;;
74344;SDS011;62776;50.518;6.732;2023-10-09T14:51:26;1.63;;;1.35;;
74344;SDS011;62776;50.518;6.732;2023-10-09T14:54:12;2.95;;;1.42;;
74344;SDS011;62776;50.518;6.732;2023-10-09T14:57:03;2.72;;;1.67;;
74344;SDS011;62776;50.518;6.732;2023-10-09T14:59:52;1.38;;;1.27;;
74344;SDS011;62776;50.518;6.732;2023-10-09T15:02:38;1.48;;;1.30;;
74344;SDS011;62776;50.518;6.732;2023-10-09T15:05:24;3.00;;;1.70;;
74344;SDS011;62776;50.518;6.732;2023-10-09T15:08:10;1.60;;;1.48;;
74344;SDS011;62776;50.518;6.732;2023-10-09T15:10:56;2.35;;;1.45;;
74344;SDS011;62776;50.518;6.732;2023-10-09T15:13:45;1.40;;;1.30;;
74344;SDS011;62776;50.518;6.732;2023-10-09T15:16:32;3.08;;;1.55;;
74344;SDS011;62776;50.518;6.732;2023-10-09T15:19:18;3.40;;;1.20;;
74344;SDS011;62776;50.518;6.732;2023-10-09T15:22:12;1.60;;;1.15;;
74344;SDS011;62776;50.518;6.732;2023-10-09T15:24:59;1.77;;;1.17;;
74344;SDS011;62776;50.518;6.732;2023-10-09T15:27:45;2.78;;;1.30;;
74344;SDS011;62776;50.518;6.732;2023-10-09T15:30:32;1.63;;;1.45;;
74344;SDS011;62776;50.518;6.732;2023-10-09T15:33:19;1.65;;;1.55;;
74344;SDS011;62776;50.518;6.732;2023-10-09T15:36:09;1.75;;;1.33;;
74344;SDS011;62776;50.518;6.732;2023-10-09T15:39:00;1.92;;;1.50;;
74344;SDS011;62776;50.518;6.732;2023-10-09T15:41:46;2.03;;;1.50;;
74344;SDS011;62776;50.518;6.732;2023-10-09T15:44:34;3.25;;;1.80;;
74344;SDS011;62776;50.518;6.732;2023-10-09T15:47:21;2.10;;;1.30;;
74344;SDS011;62776;50.518;6.732;2023-10-09T15:50:08;2.20;;;1.73;;
74344;SDS011;62776;50.518;6.732;2023-10-09T15:52:56;2.67;;;1.27;;
74344;SDS011;62776;50.518;6.732;2023-10-09T15:55:43;2.25;;;1.73;;
74344;SDS011;62776;50.518;6.732;2023-10-09T15:58:30;1.25;;;1.15;;
74344;SDS011;62776;50.518;6.732;2023-10-09T16:01:16;1.55;;;1.35;;
74344;SDS011;62776;50.518;6.732;2023-10-09T16:04:07;2.78;;;1.38;;
74344;SDS011;62776;50.518;6.732;2023-10-09T16:06:55;1.35;;;1.20;;
74344;SDS011;62776;50.518;6.732;2023-10-09T16:09:42;1.52;;;1.17;;
74344;SDS011;62776;50.518;6.732;2023-10-09T16:12:28;1.88;;;1.58;;
74344;SDS011;62776;50.518;6.732;2023-10-09T16:15:15;2.65;;;1.10;;
74344;SDS011;62776;50.518;6.732;2023-10-09T16:18:04;1.77;;;1.40;;
74344;SDS011;62776;50.518;6.732;2023-10-09T16:20:51;1.70;;;1.50;;
74344;SDS011;62776;50.518;6.732;2023-10-09T16:23:40;1.58;;;1.45;;
74344;SDS011;62776;50.518;6.732;2023-10-09T16:26:27;2.92;;;1.30;;
74344;SDS011;62776;50.518;6.732;2023-10-09T16:29:13;1.55;;;1.20;;
74344;SDS011;62776;50.518;6.732;2023-10-09T16:32:06;1.30;;;1.20;;
74344;SDS011;62776;50.518;6.732;2023-10-09T16:34:56;1.75;;;1.10;;
74344;SDS011;62776;50.518;6.732;2023-10-09T16:37:43;1.73;;;1.63;;
74344;SDS011;62776;50.518;6.732;2023-10-09T16:40:31;41.00;;;32.28;;
74344;SDS011;62776;50.518;6.732;2023-10-09T16:43:17;18.90;;;14.90;;
74344;SDS011;62776;50.518;6.732;2023-10-09T16:46:03;6.72;;;5.10;;
74344;SDS011;62776;50.518;6.732;2023-10-09T16:48:59;8.05;;;5.13;;
74344;SDS011;62776;50.518;6.732;2023-10-09T16:51:49;44.83;;;32.28;;
74344;SDS011;62776;50.518;6.732;2023-10-09T16:54:37;135.40;;;90.15;;
74344;SDS011;62776;50.518;6.732;2023-10-09T16:57:23;149.27;;;97.57;;
74344;SDS011;62776;50.518;6.732;2023-10-09T17:00:11;86.65;;;58.95;;
74344;SDS011;62776;50.518;6.732;2023-10-09T17:03:13;113.15;;;83.38;;
74344;SDS011;62776;50.518;6.732;2023-10-09T17:05:59;44.35;;;31.73;;
74344;SDS011;62776;50.518;6.732;2023-10-09T17:08:49;13.60;;;11.30;;
74344;SDS011;62776;50.518;6.732;2023-10-09T17:11:40;7.68;;;5.78;;
74344;SDS011;62776;50.518;6.732;2023-10-09T17:14:27;2.35;;;2.13;;
74344;SDS011;62776;50.518;6.732;2023-10-09T17:17:13;4.05;;;3.08;;
74344;SDS011;62776;50.518;6.732;2023-10-09T17:20:02;8.25;;;7.18;;
74344;SDS011;62776;50.518;6.732;2023-10-09T17:22:56;3.42;;;2.33;;
74344;SDS011;62776;50.518;6.732;2023-10-09T17:25:44;8.52;;;4.50;;
74344;SDS011;62776;50.518;6.732;2023-10-09T17:28:31;4.95;;;3.00;;
74344;SDS011;62776;50.518;6.732;2023-10-09T17:31:17;2.30;;;2.10;;
74344;SDS011;62776;50.518;6.732;2023-10-09T17:34:10;1.70;;;1.60;;
74344;SDS011;62776;50.518;6.732;2023-10-09T17:36:57;2.25;;;1.92;;
74344;SDS011;62776;50.518;6.732;2023-10-09T17:39:43;1.85;;;1.60;;